Data for 07/12/2009

Time Sea-Level Adjusted Pressure Absolute Pressure Temperature Relative Humidity Dew Point   
(mb) (inHg) (mb) (inHg) (C) (F) (%) (C) (F)
00:05 1023 30.21 852 25.16 20.9 69.7 37 5.7 42.2
00:10 1023 30.21 852 25.16 20.9 69.6 37 5.7 42.2
00:15 1023 30.21 852 25.16 20.8 69.5 37 5.6 42
00:20 1023 30.21 852 25.16 20.7 69.3 37 5.7 42.2
00:25 1023 30.21 852 25.16 20.6 69 37 5.6 42.1
00:30 1023 30.21 852 25.16 20.6 69 36 5.2 41.4
00:35 1023 30.21 852 25.16 20.7 69.2 36 5.3 41.5
00:40 1023 30.21 852 25.16 20.6 69.1 37 5.5 41.8
00:45 1023 30.21 852 25.16 20.5 69 36 5.3 41.5
00:50 1023 30.21 852 25.16 20.6 69.1 36 5.3 41.5
00:55 1023 30.21 852 25.16 20.6 69.1 36 5.2 41.4
01:00 1023 30.21 852 25.16 20.5 69 37 5.4 41.7
01:05 1023 30.21 852 25.16 20.4 68.8 37 5.3 41.6
01:10 1023 30.21 852 25.16 20.3 68.6 37 5.3 41.6
01:15 1023 30.21 852 25.16 20.2 68.3 37 5.2 41.4
01:20 1023 30.21 852 25.16 20.1 68.2 37 5.2 41.3
01:25 1023 30.21 852 25.16 20.1 68.2 37 5 41.1
01:30 1023 30.21 852 25.16 20 68 38 5.4 41.7
01:35 1023 30.21 852 25.16 19.8 67.6 38 5.2 41.3
01:40 1023 30.21 852 25.16 19.7 67.5 38 5.2 41.4
01:45 1023 30.21 852 25.16 19.6 67.2 39 5.5 41.8
01:50 1023 30.21 852 25.16 19.4 66.8 39 5.2 41.4
01:55 1022 30.18 852 25.16 19.4 66.9 38 4.9 40.9
02:00 1022 30.18 852 25.16 19.5 67 38 4.9 40.9
02:05 1022 30.18 852 25.16 19.5 67.1 37 4.6 40.3
02:10 1022 30.18 852 25.16 19.5 67.1 37 4.7 40.5
02:15 1022 30.18 852 25.16 19.5 67.1 37 4.6 40.2
02:20 1022 30.18 852 25.16 19.4 67 37 4.7 40.4
02:25 1022 30.18 851 25.13 19.4 66.8 38 4.7 40.4
02:30 1022 30.18 851 25.13 19.2 66.6 38 4.6 40.3
02:35 1022 30.18 851 25.13 19.2 66.5 38 4.5 40.2
02:40 1022 30.18 851 25.13 19.2 66.5 37 4.2 39.6
02:45 1022 30.18 851 25.13 19.2 66.6 36 3.9 39
02:50 1022 30.18 851 25.13 19.3 66.7 36 3.8 38.9
02:55 1022 30.18 851 25.13 19.3 66.7 36 3.8 38.8
03:00 1022 30.18 851 25.13 19.2 66.6 36 3.7 38.7
03:05 1022 30.18 851 25.13 19.2 66.5 36 3.7 38.7
03:10 1022 30.18 852 25.16 19.1 66.5 36 3.8 38.8
03:15 1022 30.18 852 25.16 19.1 66.3 36 3.7 38.7
03:20 1023 30.21 852 25.16 19 66.1 36 3.7 38.6
03:25 1023 30.21 852 25.16 19 66.1 36 3.6 38.5
03:30 1023 30.21 852 25.16 18.9 66 36 3.6 38.5
03:35 1023 30.21 852 25.16 18.8 65.9 36 3.6 38.4
03:40 1023 30.21 852 25.16 18.7 65.6 37 3.7 38.6
03:45 1023 30.21 852 25.16 18.7 65.6 36 3.5 38.2
03:50 1023 30.21 852 25.16 18.6 65.5 36 3.4 38.1
03:55 1022 30.18 852 25.16 18.6 65.4 36 3.4 38.2
04:00 1023 30.21 852 25.16 18.6 65.4 36 3.2 37.7
04:05 1023 30.21 852 25.16 18.6 65.5 35 3.2 37.7
04:10 1023 30.21 852 25.16 18.5 65.3 36 3.3 37.9
04:15 1023 30.21 852 25.16 18.4 65.1 36 3.1 37.5
04:20 1023 30.21 852 25.16 18.4 65 36 3.2 37.8
04:25 1023 30.21 852 25.16 18.3 64.9 36 3.1 37.6
04:30 1023 30.21 852 25.16 18.3 64.9 36 3.2 37.7
04:35 1023 30.21 852 25.16 18.2 64.7 38 3.7 38.6
04:40 1023 30.21 852 25.16 18 64.3 39 3.9 39
04:45 1022 30.18 852 25.16 17.8 64.1 40 4.1 39.3
04:50 1022 30.18 852 25.16 17.7 63.9 40 4 39.2
04:55 1022 30.18 852 25.16 17.7 63.9 40 4 39.3
05:00 1022 30.18 852 25.16 17.8 64 39 3.9 39
05:05 1022 30.18 852 25.16 17.8 64.1 39 3.8 38.9
05:10 1023 30.21 852 25.16 17.9 64.1 39 3.9 39
05:15 1023 30.21 852 25.16 17.7 63.9 40 3.9 39
05:20 1023 30.21 852 25.16 17.6 63.6 40 3.8 38.9
05:25 1023 30.21 852 25.16 17.5 63.6 40 3.9 39
05:30 1023 30.21 852 25.16 17.6 63.7 39 3.6 38.4
05:35 1023 30.21 852 25.16 17.6 63.8 39 3.7 38.7
05:40 1023 30.21 852 25.16 17.7 63.8 38 3.4 38.2
05:45 1022 30.18 852 25.16 17.7 63.9 39 3.6 38.5
05:50 1022 30.18 852 25.16 17.7 63.8 38 3.4 38.2
05:55 1022 30.18 852 25.16 17.7 63.9 38 3.5 38.3
06:00 1022 30.18 852 25.16 17.7 63.9 38 3.5 38.3
06:05 1022 30.18 852 25.16 17.7 63.9 38 3.5 38.2
06:10 1023 30.21 852 25.16 17.8 64.1 38 3.5 38.2
06:15 1022 30.18 852 25.16 17.7 63.9 38 3.4 38.1
06:20 1023 30.21 852 25.16 17.6 63.8 38 3.5 38.2
06:25 1023 30.21 852 25.16 17.7 63.8 38 3.5 38.3
06:30 1023 30.21 852 25.16 17.7 63.9 38 3.3 38
06:35 1023 30.21 852 25.16 17.8 64.1 38 3.3 37.9
06:40 1023 30.21 852 25.16 17.9 64.2 38 3.4 38.1
06:45 1023 30.21 852 25.16 17.8 64 38 3.4 38.1
06:50 1023 30.21 852 25.16 17.7 63.9 38 3.4 38.2
06:55 1023 30.21 852 25.16 17.8 64 38 3.2 37.8
07:00 1023 30.21 852 25.16 17.9 64.1 38 3.6 38.4
07:05 1023 30.21 852 25.16 17.8 64.1 38 3.6 38.5
07:10 1023 30.21 852 25.16 17.8 64.1 39 3.8 38.8
07:15 1023 30.21 852 25.16 17.8 64.1 39 3.9 39
07:20 1023 30.21 852 25.16 17.9 64.2 39 3.8 38.8
07:25 1023 30.21 852 25.16 18 64.3 39 3.8 38.9
07:30 1023 30.21 852 25.16 18.1 64.5 39 4 39.2
07:35 1023 30.21 852 25.16 18 64.3 40 4.3 39.8
07:40 1023 30.21 852 25.16 18.1 64.5 41 4.6 40.2
07:45 1023 30.21 852 25.16 18.2 64.7 40 4.4 39.9
07:50 1023 30.21 852 25.16 18.3 64.9 40 4.7 40.4
07:55 1023 30.21 852 25.16 18.5 65.2 39 4.4 39.9
08:00 1023 30.21 852 25.16 18.6 65.5 40 4.8 40.6
08:05 1023 30.21 852 25.16 18.6 65.6 39 4.6 40.3
08:10 1023 30.21 852 25.16 18.6 65.5 40 5.1 41.1
08:15 1023 30.21 852 25.16 18.7 65.6 40 4.9 40.8
08:20 1023 30.21 852 25.16 18.7 65.7 40 5.1 41.2
08:25 1023 30.21 852 25.16 18.9 66.1 41 5.4 41.7
08:30 1023 30.21 852 25.16 19 66.2 41 5.6 42.1
08:35 1023 30.21 852 25.16 19 66.1 41 5.5 41.8
08:40 1023 30.21 852 25.16 19 66.1 41 5.7 42.2
08:45 1023 30.21 852 25.16 19.2 66.6 41 5.8 42.4
08:50 1023 30.21 852 25.16 19.4 66.8 41 5.8 42.5
08:55 1022 30.18 852 25.16 19.5 67.1 41 5.9 42.6
09:00 1023 30.21 852 25.16 19.8 67.7 40 6.1 43.1
09:05 1023 30.21 852 25.16 19.8 67.6 41 6.3 43.3
09:10 1023 30.21 852 25.16 19.8 67.6 41 6.4 43.6
09:15 1023 30.21 852 25.16 20 68 40 6.2 43.1
09:20 1022 30.18 852 25.16 19.9 67.8 41 6.2 43.2
09:25 1022 30.18 852 25.16 20.2 68.4 40 6.4 43.5
09:30 1022 30.18 852 25.16 20.4 68.7 40 6.6 43.8
09:35 1022 30.18 852 25.16 20.6 69.1 39 6.4 43.5
09:40 1022 30.18 852 25.16 20.6 69 40 6.6 44
09:45 1022 30.18 852 25.16 20.9 69.5 39 6.5 43.7
09:50 1022 30.18 851 25.13 21 69.7 38 6.4 43.5
09:55 1022 30.18 851 25.13 21.2 70.2 38 6.7 44
10:00 1022 30.18 851 25.13 21.5 70.8 38 7 44.5
10:05 1022 30.18 851 25.13 21.6 70.9 38 7 44.5
10:10 1022 30.18 851 25.13 21.8 71.2 38 7.1 44.7
10:15 1022 30.18 851 25.13 21.9 71.4 39 7.5 45.4
10:20 1022 30.18 851 25.13 21.8 71.2 38 7 44.6
10:25 1022 30.18 851 25.13 22.4 72.3 35 6.3 43.4
10:30 1022 30.18 851 25.13 22.7 72.8 36 7.1 44.7
10:35 1022 30.18 851 25.13 23 73.4 35 6.8 44.2
10:40 1022 30.18 851 25.13 22.9 73.3 34 6.6 44
10:45 1022 30.18 851 25.13 22.5 72.5 34 6.3 43.3
10:50 1022 30.18 851 25.13 22.4 72.4 35 6.3 43.3
10:55 1022 30.18 851 25.13 22.7 72.9 35 6.9 44.4
11:00 1022 30.18 851 25.13 22.7 72.9 36 6.9 44.5
11:05 1022 30.18 851 25.13 22.8 73 36 7 44.5
11:10 1022 30.18 851 25.13 22.9 73.2 36 7.4 45.3
11:15 1022 30.18 851 25.13 23.3 73.9 34 6.9 44.4
11:20 1022 30.18 851 25.13 23.1 73.6 34 6.5 43.7
11:25 1022 30.18 851 25.13 22.8 73.1 35 6.9 44.4
11:30 1022 30.18 851 25.13 22.8 73.1 36 7.3 45.1
11:35 1022 30.18 851 25.13 22.5 72.6 36 6.9 44.4
11:40 1022 30.18 851 25.13 22.3 72.1 37 6.9 44.4
11:45 1021 30.15 851 25.13 22.1 71.7 38 7.2 45
11:50 1021 30.15 851 25.13 22 71.5 39 7.5 45.4
11:55 1021 30.15 851 25.13 22.3 72.1 37 7.1 44.7
12:00 1021 30.15 851 25.13 23.2 73.8 34 6.8 44.2
12:05 1021 30.15 851 25.13 23.5 74.3 35 7.5 45.5
12:10 1021 30.15 850 25.1 24.2 75.5 34 7.5 45.5
12:15 1021 30.15 850 25.1 24.2 75.6 33 7.3 45.2
12:20 1021 30.15 850 25.1 24.6 76.2 33 7.4 45.3
12:25 1021 30.15 850 25.1 24.5 76.1 33 7.2 45
12:30 1021 30.15 850 25.1 24.6 76.2 33 7.3 45.2
12:35 1021 30.15 850 25.1 24.8 76.6 33 7.6 45.6
12:40 1021 30.15 850 25.1 24.9 76.9 32 7.5 45.4
12:45 1021 30.15 850 25.1 25.3 77.5 32 7.7 45.9
12:50 1021 30.15 850 25.1 25.4 77.7 31 7.4 45.4
12:55 1021 30.15 850 25.1 25.2 77.3 33 7.9 46.3
13:00 1021 30.15 850 25.1 25.5 77.8 32 8 46.4
13:05 1021 30.15 850 25.1 25.5 77.9 32 8 46.5
13:10 1021 30.15 850 25.1 25.3 77.6 32 7.8 46.1
13:15 1021 30.15 850 25.1 25.3 77.5 32 7.9 46.1
13:20 1020 30.12 850 25.1 25.3 77.6 33 7.9 46.3
13:25 1020 30.12 850 25.1 25.4 77.8 34 8.5 47.2
13:30 1020 30.12 849 25.07 25.2 77.4 34 8.4 47
13:35 1020 30.12 849 25.07 24.9 76.9 35 8.7 47.7
13:40 1020 30.12 849 25.07 24.3 75.7 36 8.3 47
13:45 1020 30.12 849 25.07 24 75.2 37 8.5 47.4
13:50 1020 30.12 850 25.1 24 75.1 36 8.1 46.5
13:55 1021 30.15 850 25.1 24.1 75.5 36 8.2 46.8
14:00 1021 30.15 850 25.1 24.5 76.1 34 8 46.4
14:05 1021 30.15 850 25.1 24.8 76.6 34 7.9 46.2
14:10 1021 30.15 850 25.1 24.9 76.9 33 7.9 46.2
14:15 1021 30.15 850 25.1 25.1 77.2 32 7.6 45.6
14:20 1020 30.12 850 25.1 25.9 78.5 30 7.5 45.4
14:25 1020 30.12 850 25.1 26.5 79.7 31 8.4 47.1
14:30 1020 30.12 850 25.1 27.3 81.1 32 9.5 49.1
14:35 1020 30.12 849 25.07 26.4 79.5 37 11 51.8
14:40 1020 30.12 849 25.07 26.3 79.4 33 8.9 48
14:45 1020 30.12 849 25.07 26.9 80.5 31 8.6 47.5
14:50 1020 30.12 849 25.07 27.4 81.3 28 7.8 46
14:55 1020 30.12 849 25.07 27.4 81.3 29 8.1 46.7
15:00 1020 30.12 849 25.07 27.3 81.1 30 8.5 47.4
15:05 1020 30.12 849 25.07 26.9 80.4 30 8.2 46.8
15:10 1020 30.12 849 25.07 26.5 79.7 31 8.1 46.6
15:15 1020 30.12 849 25.07 26.1 78.9 31 7.7 45.9
15:20 1020 30.12 849 25.07 26.1 78.9 31 7.8 46.1
15:25 1019 30.09 849 25.07 25.9 78.7 30 7.3 45.1
15:30 1019 30.09 849 25.07 26.5 79.8 30 7.8 46.1
15:35 1019 30.09 848 25.04 26.4 79.6 30 7.9 46.2
15:40 1019 30.09 848 25.04 26.1 78.9 32 8.3 47
15:45 1019 30.09 848 25.04 25.7 78.3 33 8.5 47.3
15:50 1019 30.09 848 25.04 25.1 77.3 33 8.2 46.7
15:55 1019 30.09 849 25.07 24.6 76.4 34 8 46.4
16:00 1019 30.09 849 25.07 24.1 75.3 40 10 50
16:05 1020 30.12 849 25.07 22.9 73.2 47 11.1 52
16:10 1020 30.12 850 25.1 22.5 72.6 49 11.4 52.5
16:15 1021 30.15 850 25.1 22.8 73 48 11.3 52.3
16:20 1021 30.15 851 25.13 22 71.6 56 13.1 55.5
16:25 1021 30.15 851 25.13 19.9 67.9 65 13.3 55.9
16:30 1022 30.18 851 25.13 18.9 66 65 12.4 54.3
16:35 1023 30.21 852 25.16 18.7 65.6 67 12.5 54.4
16:40 1022 30.18 851 25.13 18.4 65 71 13 55.3
16:45 1021 30.15 851 25.13 17.3 63.1 76 13 55.5
16:50 1021 30.15 850 25.1 17.5 63.6 74 13 55.3
16:55 1021 30.15 851 25.13 18.4 65 71 13.1 55.5
17:00 1021 30.15 851 25.13 19.5 67.2 69 13.8 56.9
17:05 1021 30.15 851 25.13 20.5 68.9 65 13.8 56.8
17:10 1021 30.15 851 25.13 20.6 69.1 65 13.9 57
17:15 1021 30.15 850 25.1 20.7 69.3 65 14 57.3
17:20 1021 30.15 850 25.1 20.6 69.2 65 14 57.2
17:25 1021 30.15 850 25.1 20.2 68.4 65 13.5 56.3
17:30 1021 30.15 850 25.1 20.7 69.3 65 13.9 57.1
17:35 1021 30.15 850 25.1 20.9 69.6 60 12.9 55.3
17:40 1020 30.12 850 25.1 21.1 70 57 12.4 54.4
17:45 1020 30.12 850 25.1 21.5 70.7 56 12.5 54.6
17:50 1020 30.12 849 25.07 21.3 70.3 55 12 53.6
17:55 1020 30.12 849 25.07 20.8 69.4 58 12.3 54.2
18:00 1020 30.12 849 25.07 20.5 69 57 11.9 53.4
18:05 1020 30.12 849 25.07 20.4 68.8 58 12 53.6
18:10 1020 30.12 849 25.07 20.4 68.6 58 11.9 53.4
18:15 1020 30.12 849 25.07 20.3 68.5 56 11.4 52.5
18:20 1020 30.12 849 25.07 20.3 68.5 56 11.2 52.2
18:25 1020 30.12 849 25.07 20.3 68.6 55 11.2 52.1
18:30 1020 30.12 849 25.07 20.3 68.6 52 10.3 50.6
18:35 1021 30.15 850 25.1 20.4 68.6 53 10.6 51.1
18:40 1021 30.15 850 25.1 20.3 68.5 52 10.2 50.4
18:45 1021 30.15 850 25.1 20.4 68.7 53 10.5 50.9
18:50 1021 30.15 851 25.13 20.5 68.9 58 12 53.6
18:55 1021 30.15 850 25.1 20.3 68.6 55 11.2 52.2
19:00 1021 30.15 850 25.1 20.9 69.6 58 12.3 54.2
19:05 1020 30.12 849 25.07 20.1 68.3 65 13.5 56.4
19:10 1020 30.12 849 25.07 19.4 67 66 13 55.4
19:15 1021 30.15 850 25.1 19 66.1 67 12.7 54.9
19:20 1021 30.15 850 25.1 18.7 65.7 68 12.7 54.8
19:25 1021 30.15 850 25.1 18.5 65.3 71 13.2 55.8
19:30 1020 30.12 849 25.07 18.3 65 70 12.9 55.2
19:35 1020 30.12 849 25.07 18.1 64.5 73 13.2 55.7
19:40 1021 30.15 850 25.1 18.1 64.5 69 12.3 54.1
19:45 1021 30.15 850 25.1 18.3 64.9 72 13.1 55.6
19:50 1022 30.18 851 25.13 18.5 65.3 71 13.2 55.7
19:55 1022 30.18 852 25.16 18.4 65.1 71 13 55.5
20:00 1022 30.18 851 25.13 18.4 65 68 12.5 54.5
20:05 1022 30.18 851 25.13 18.6 65.4 68 12.6 54.7
20:10 1022 30.18 852 25.16 18.6 65.5 68 12.5 54.6
20:15 1022 30.18 852 25.16 18.5 65.3 67 12.3 54.1
20:20 1022 30.18 852 25.16 18.3 65 69 12.6 54.7
20:25 1023 30.21 852 25.16 17.8 64 76 13.5 56.3
20:30 1023 30.21 852 25.16 16.9 62.5 80 13.4 56.1
20:35 1023 30.21 852 25.16 16.4 61.5 81 13.2 55.8
20:40 1023 30.21 853 25.19 16.2 61.2 84 13.5 56.3
20:45 1024 30.24 853 25.19 16.3 61.3 83 13.4 56
20:50 1024 30.24 853 25.19 16.1 61.1 82 13.1 55.5
20:55 1024 30.24 853 25.19 16.1 60.9 80 12.6 54.6
21:00 1023 30.21 852 25.16 16 60.8 82 12.9 55.2
21:05 1022 30.18 852 25.16 15.2 59.3 87 13.1 55.6
21:10 1022 30.18 852 25.16 14.8 58.7 88 12.9 55.2
21:15 1022 30.18 851 25.13 14.8 58.6 86 12.5 54.5
21:20 1022 30.18 851 25.13 14.7 58.5 89 12.9 55.1
21:25 1021 30.15 850 25.1 14.6 58.3 89 12.8 55.1
21:30 1021 30.15 850 25.1 14.5 58 91 13 55.5
21:35 1021 30.15 850 25.1 14.4 58 90 12.8 55
21:40 1021 30.15 851 25.13 14.5 58.2 86 12.2 53.9
21:45 1022 30.18 851 25.13 15 58.9 83 12.1 53.7
21:50 1022 30.18 851 25.13 15 59.1 83 12.1 53.8
21:55 1022 30.18 851 25.13 15.2 59.3 79 11.7 53
22:00 1022 30.18 851 25.13 15.2 59.3 80 11.7 53.1
22:05 1021 30.15 851 25.13 15.1 59.1 79 11.4 52.5
22:10 1021 30.15 851 25.13 15.2 59.4 79 11.6 52.9
22:15 1021 30.15 851 25.13 15.3 59.5 77 11.4 52.5
22:20 1021 30.15 850 25.1 15.3 59.5 77 11.3 52.4
22:25 1021 30.15 850 25.1 15.3 59.5 77 11.4 52.5
22:30 1021 30.15 850 25.1 15.1 59.1 79 11.5 52.8
22:35 1021 30.15 850 25.1 14.9 58.9 80 11.6 52.9
22:40 1021 30.15 850 25.1 14.8 58.6 82 11.7 53
22:45 1021 30.15 850 25.1 14.7 58.4 80 11.3 52.3
22:50 1020 30.12 850 25.1 14.7 58.5 80 11.4 52.4
22:55 1020 30.12 850 25.1 14.7 58.5 79 11.2 52.2
23:00 1020 30.12 850 25.1 14.8 58.7 78 11.1 52
23:05 1020 30.12 850 25.1 14.8 58.7 79 11.2 52.2
23:10 1021 30.15 850 25.1 15.1 59.2 74 10.4 50.8
23:15 1021 30.15 850 25.1 15.4 59.7 74 10.8 51.4
23:20 1021 30.15 851 25.13 15.5 60 71 10.4 50.6
23:25 1023 30.21 853 25.19 15.8 60.5 75 11.4 52.4
23:30 1024 30.24 853 25.19 15.3 59.6 79 11.7 53.1
23:35 1023 30.21 853 25.19 15.1 59.2 78 11.3 52.3
23:40 1023 30.21 852 25.16 15.1 59.2 77 11.1 52
23:45 1022 30.18 852 25.16 15 58.9 76 10.7 51.3
23:50 1022 30.18 851 25.13 15.4 59.6 79 11.8 53.3
23:55 1022 30.18 852 25.16 15 58.9 77 11 51.9
24:00 1023 30.21 852 25.16 14.8 58.6 82 11.7 53.1